sensor_id;sensor_type;location;lat;lon;timestamp;pressure;altitude;pressure_sealevel;temperature;humidity
29839;BME280;18669;53.356;-1.464;2023-02-22T00:00:37;100062.47;;;9.21;100.00
29839;BME280;18669;53.356;-1.464;2023-02-22T00:03:20;100065.28;;;9.13;100.00
29839;BME280;18669;53.356;-1.464;2023-02-22T00:05:56;100054.84;;;9.10;100.00
29839;BME280;18669;53.356;-1.464;2023-02-22T00:08:28;100034.00;;;9.05;100.00
29839;BME280;18669;53.356;-1.464;2023-02-22T00:10:59;100036.41;;;9.13;100.00
29839;BME280;18669;53.356;-1.464;2023-02-22T00:13:27;100036.63;;;9.05;100.00
29839;BME280;18669;53.356;-1.464;2023-02-22T00:15:54;100045.47;;;9.01;100.00
29839;BME280;18669;53.356;-1.464;2023-02-22T00:18:21;100030.00;;;8.89;100.00
29839;BME280;18669;53.356;-1.464;2023-02-22T00:20:47;100043.91;;;8.92;100.00
29839;BME280;18669;53.356;-1.464;2023-02-22T00:23:18;100045.66;;;8.92;100.00
29839;BME280;18669;53.356;-1.464;2023-02-22T00:25:49;100044.75;;;8.93;100.00
29839;BME280;18669;53.356;-1.464;2023-02-22T00:28:16;100038.75;;;8.88;100.00
29839;BME280;18669;53.356;-1.464;2023-02-22T00:30:44;100037.00;;;8.88;100.00
29839;BME280;18669;53.356;-1.464;2023-02-22T00:33:11;100036.91;;;8.93;100.00
29839;BME280;18669;53.356;-1.464;2023-02-22T00:35:37;100042.25;;;8.88;100.00
29839;BME280;18669;53.356;-1.464;2023-02-22T00:38:03;100034.84;;;9.06;100.00
29839;BME280;18669;53.356;-1.464;2023-02-22T00:40:32;100034.13;;;8.99;100.00
29839;BME280;18669;53.356;-1.464;2023-02-22T00:43:03;100036.53;;;9.08;100.00
29839;BME280;18669;53.356;-1.464;2023-02-22T00:45:32;100024.28;;;9.09;100.00
29839;BME280;18669;53.356;-1.464;2023-02-22T00:47:58;100029.66;;;9.03;100.00
29839;BME280;18669;53.356;-1.464;2023-02-22T00:50:29;100025.03;;;9.14;100.00
29839;BME280;18669;53.356;-1.464;2023-02-22T00:52:56;100023.38;;;9.10;100.00
29839;BME280;18669;53.356;-1.464;2023-02-22T00:55:29;99999.69;;;9.13;100.00
29839;BME280;18669;53.356;-1.464;2023-02-22T00:57:55;100007.69;;;9.08;100.00
29839;BME280;18669;53.356;-1.464;2023-02-22T01:00:24;100010.84;;;9.21;100.00
29839;BME280;18669;53.356;-1.464;2023-02-22T01:02:51;100008.38;;;9.15;100.00
29839;BME280;18669;53.356;-1.464;2023-02-22T01:05:19;100005.69;;;9.18;100.00
29839;BME280;18669;53.356;-1.464;2023-02-22T01:07:47;100005.75;;;9.15;100.00
29839;BME280;18669;53.356;-1.464;2023-02-22T01:10:16;100015.34;;;9.18;100.00
29839;BME280;18669;53.356;-1.464;2023-02-22T01:12:45;100019.75;;;9.16;100.00
29839;BME280;18669;53.356;-1.464;2023-02-22T01:15:12;100012.72;;;9.16;100.00
29839;BME280;18669;53.356;-1.464;2023-02-22T01:17:39;100009.00;;;9.25;100.00
29839;BME280;18669;53.356;-1.464;2023-02-22T01:20:08;100003.88;;;9.20;100.00
29839;BME280;18669;53.356;-1.464;2023-02-22T01:22:51;100008.78;;;9.34;100.00
29839;BME280;18669;53.356;-1.464;2023-02-22T01:25:21;100007.97;;;9.32;100.00
29839;BME280;18669;53.356;-1.464;2023-02-22T01:27:48;100008.22;;;9.21;100.00
29839;BME280;18669;53.356;-1.464;2023-02-22T01:30:17;100006.28;;;9.30;100.00
29839;BME280;18669;53.356;-1.464;2023-02-22T01:32:44;100009.00;;;9.25;100.00
29839;BME280;18669;53.356;-1.464;2023-02-22T01:35:11;99999.78;;;9.43;100.00
29839;BME280;18669;53.356;-1.464;2023-02-22T01:37:39;100004.59;;;9.27;100.00
29839;BME280;18669;53.356;-1.464;2023-02-22T01:40:08;99991.19;;;9.38;100.00
29839;BME280;18669;53.356;-1.464;2023-02-22T01:42:35;99995.88;;;9.25;100.00
29839;BME280;18669;53.356;-1.464;2023-02-22T01:53:28;99958.03;;;8.99;100.00
29839;BME280;18669;53.356;-1.464;2023-02-22T01:55:56;99955.56;;;8.93;100.00
29839;BME280;18669;53.356;-1.464;2023-02-22T01:58:25;99946.72;;;8.99;100.00
29839;BME280;18669;53.356;-1.464;2023-02-22T02:00:51;99948.56;;;8.93;100.00
29839;BME280;18669;53.356;-1.464;2023-02-22T02:03:21;99939.53;;;9.05;100.00
29839;BME280;18669;53.356;-1.464;2023-02-22T02:05:50;99944.81;;;9.04;100.00
29839;BME280;18669;53.356;-1.464;2023-02-22T02:08:23;99940.72;;;8.92;100.00
29839;BME280;18669;53.356;-1.464;2023-02-22T02:10:53;99948.50;;;8.97;100.00
29839;BME280;18669;53.356;-1.464;2023-02-22T02:13:19;99938.25;;;8.86;100.00
29839;BME280;18669;53.356;-1.464;2023-02-22T02:15:45;99941.69;;;8.88;100.00
29839;BME280;18669;53.356;-1.464;2023-02-22T02:18:14;99935.47;;;8.92;100.00
29839;BME280;18669;53.356;-1.464;2023-02-22T02:34:53;99928.22;;;9.03;100.00
29839;BME280;18669;53.356;-1.464;2023-02-22T02:37:46;99923.47;;;9.18;100.00
29839;BME280;18669;53.356;-1.464;2023-02-22T02:40:21;99912.25;;;9.13;100.00
29839;BME280;18669;53.356;-1.464;2023-02-22T02:45:54;99897.00;;;8.92;100.00
29839;BME280;18669;53.356;-1.464;2023-02-22T02:48:25;99895.97;;;8.98;100.00
29839;BME280;18669;53.356;-1.464;2023-02-22T02:50:54;99891.59;;;8.99;100.00
29839;BME280;18669;53.356;-1.464;2023-02-22T02:53:26;99893.34;;;8.98;100.00
29839;BME280;18669;53.356;-1.464;2023-02-22T02:55:58;99898.59;;;9.00;100.00
29839;BME280;18669;53.356;-1.464;2023-02-22T02:58:24;99907.59;;;8.88;100.00
29839;BME280;18669;53.356;-1.464;2023-02-22T03:00:55;99913.44;;;8.99;100.00
29839;BME280;18669;53.356;-1.464;2023-02-22T03:03:50;99910.59;;;9.08;100.00
29839;BME280;18669;53.356;-1.464;2023-02-22T03:12:14;99920.75;;;8.86;100.00
29839;BME280;18669;53.356;-1.464;2023-02-22T03:18:03;99912.97;;;8.83;100.00
29839;BME280;18669;53.356;-1.464;2023-02-22T03:23:25;99909.75;;;8.72;100.00
29839;BME280;18669;53.356;-1.464;2023-02-22T03:26:02;99915.88;;;8.71;100.00
29839;BME280;18669;53.356;-1.464;2023-02-22T03:28:31;99906.41;;;8.65;100.00
29839;BME280;18669;53.356;-1.464;2023-02-22T03:31:02;99908.19;;;8.64;100.00
29839;BME280;18669;53.356;-1.464;2023-02-22T03:33:40;99905.56;;;8.64;100.00
29839;BME280;18669;53.356;-1.464;2023-02-22T03:36:27;99898.69;;;8.60;100.00
29839;BME280;18669;53.356;-1.464;2023-02-22T03:38:57;99891.84;;;8.53;100.00
29839;BME280;18669;53.356;-1.464;2023-02-22T03:41:25;99881.44;;;8.50;100.00
29839;BME280;18669;53.356;-1.464;2023-02-22T03:44:05;99887.38;;;8.57;100.00
29839;BME280;18669;53.356;-1.464;2023-02-22T03:46:35;99883.25;;;8.46;100.00
29839;BME280;18669;53.356;-1.464;2023-02-22T03:51:55;99881.75;;;8.34;100.00
29839;BME280;18669;53.356;-1.464;2023-02-22T03:54:21;99887.94;;;8.32;100.00
29839;BME280;18669;53.356;-1.464;2023-02-22T03:56:48;99885.78;;;8.51;100.00
29839;BME280;18669;53.356;-1.464;2023-02-22T03:59:16;99889.47;;;8.41;100.00
29839;BME280;18669;53.356;-1.464;2023-02-22T04:01:43;99885.25;;;8.35;100.00
29839;BME280;18669;53.356;-1.464;2023-02-22T04:04:09;99871.59;;;8.20;100.00
29839;BME280;18669;53.356;-1.464;2023-02-22T04:06:35;99887.38;;;8.19;100.00
29839;BME280;18669;53.356;-1.464;2023-02-22T04:09:01;99882.00;;;8.24;100.00
29839;BME280;18669;53.356;-1.464;2023-02-22T04:11:27;99878.69;;;8.15;100.00
29839;BME280;18669;53.356;-1.464;2023-02-22T04:13:53;99875.84;;;8.26;100.00
29839;BME280;18669;53.356;-1.464;2023-02-22T04:16:19;99874.78;;;8.33;100.00
29839;BME280;18669;53.356;-1.464;2023-02-22T04:18:45;99873.88;;;8.36;100.00
29839;BME280;18669;53.356;-1.464;2023-02-22T04:21:12;99869.25;;;8.46;100.00
29839;BME280;18669;53.356;-1.464;2023-02-22T04:23:39;99861.41;;;8.46;100.00
29839;BME280;18669;53.356;-1.464;2023-02-22T04:26:05;99863.94;;;8.50;100.00
29839;BME280;18669;53.356;-1.464;2023-02-22T04:28:31;99870.06;;;8.49;100.00
29839;BME280;18669;53.356;-1.464;2023-02-22T04:30:57;99866.59;;;8.49;100.00
29839;BME280;18669;53.356;-1.464;2023-02-22T04:33:23;99871.13;;;8.41;100.00
29839;BME280;18669;53.356;-1.464;2023-02-22T04:35:49;99872.84;;;8.43;100.00
29839;BME280;18669;53.356;-1.464;2023-02-22T04:38:16;99877.03;;;8.50;100.00
29839;BME280;18669;53.356;-1.464;2023-02-22T04:40:42;99869.19;;;8.50;100.00
29839;BME280;18669;53.356;-1.464;2023-02-22T04:43:08;99869.97;;;8.54;100.00
29839;BME280;18669;53.356;-1.464;2023-02-22T04:45:34;99869.94;;;8.56;100.00
29839;BME280;18669;53.356;-1.464;2023-02-22T04:48:00;99866.47;;;8.55;100.00
29839;BME280;18669;53.356;-1.464;2023-02-22T04:50:26;99865.13;;;8.73;100.00
29839;BME280;18669;53.356;-1.464;2023-02-22T04:52:52;99863.69;;;8.61;100.00
29839;BME280;18669;53.356;-1.464;2023-02-22T04:55:18;99857.63;;;8.59;100.00
29839;BME280;18669;53.356;-1.464;2023-02-22T04:57:44;99861.09;;;8.60;100.00
29839;BME280;18669;53.356;-1.464;2023-02-22T05:00:15;99860.75;;;8.74;100.00
29839;BME280;18669;53.356;-1.464;2023-02-22T05:02:42;99869.84;;;8.59;100.00
29839;BME280;18669;53.356;-1.464;2023-02-22T05:05:07;99867.34;;;8.54;100.00
29839;BME280;18669;53.356;-1.464;2023-02-22T05:07:33;99866.53;;;8.52;100.00
29839;BME280;18669;53.356;-1.464;2023-02-22T05:09:59;99862.03;;;8.57;100.00
29839;BME280;18669;53.356;-1.464;2023-02-22T05:12:27;99860.19;;;8.61;100.00
29839;BME280;18669;53.356;-1.464;2023-02-22T05:14:53;99856.72;;;8.60;100.00
29839;BME280;18669;53.356;-1.464;2023-02-22T05:17:19;99849.19;;;8.45;100.00
29839;BME280;18669;53.356;-1.464;2023-02-22T05:19:45;99857.84;;;8.50;100.00
29839;BME280;18669;53.356;-1.464;2023-02-22T05:22:12;99855.84;;;8.60;100.00
29839;BME280;18669;53.356;-1.464;2023-02-22T05:24:38;99855.16;;;8.53;100.00
29839;BME280;18669;53.356;-1.464;2023-02-22T05:27:04;99836.88;;;8.48;100.00
29839;BME280;18669;53.356;-1.464;2023-02-22T05:29:30;99835.91;;;8.53;100.00
29839;BME280;18669;53.356;-1.464;2023-02-22T05:31:56;99844.69;;;8.51;100.00
29839;BME280;18669;53.356;-1.464;2023-02-22T05:34:23;99846.41;;;8.53;100.00
29839;BME280;18669;53.356;-1.464;2023-02-22T05:36:48;99839.41;;;8.53;100.00
29839;BME280;18669;53.356;-1.464;2023-02-22T05:39:15;99842.00;;;8.55;100.00
29839;BME280;18669;53.356;-1.464;2023-02-22T05:41:40;99847.75;;;8.69;100.00
29839;BME280;18669;53.356;-1.464;2023-02-22T05:44:06;99848.09;;;8.55;100.00
29839;BME280;18669;53.356;-1.464;2023-02-22T05:46:32;99849.41;;;8.73;100.00
29839;BME280;18669;53.356;-1.464;2023-02-22T05:48:58;99842.06;;;8.51;100.00
29839;BME280;18669;53.356;-1.464;2023-02-22T05:51:24;99834.78;;;8.63;100.00
29839;BME280;18669;53.356;-1.464;2023-02-22T05:53:50;99843.94;;;8.46;100.00
29839;BME280;18669;53.356;-1.464;2023-02-22T05:56:24;99841.22;;;8.51;100.00
29839;BME280;18669;53.356;-1.464;2023-02-22T05:58:51;99833.72;;;8.34;100.00
29839;BME280;18669;53.356;-1.464;2023-02-22T06:01:18;99835.47;;;8.33;100.00
29839;BME280;18669;53.356;-1.464;2023-02-22T06:03:50;99834.25;;;8.50;100.00
29839;BME280;18669;53.356;-1.464;2023-02-22T06:06:17;99838.69;;;8.46;100.00
29839;BME280;18669;53.356;-1.464;2023-02-22T06:08:45;99842.22;;;8.45;100.00
29839;BME280;18669;53.356;-1.464;2023-02-22T06:11:12;99836.97;;;8.44;100.00
29839;BME280;18669;53.356;-1.464;2023-02-22T06:13:38;99839.69;;;8.41;100.00
29839;BME280;18669;53.356;-1.464;2023-02-22T06:16:05;99838.75;;;8.43;100.00
29839;BME280;18669;53.356;-1.464;2023-02-22T06:18:31;99833.50;;;8.43;100.00
29839;BME280;18669;53.356;-1.464;2023-02-22T06:20:58;99832.63;;;8.43;100.00
29839;BME280;18669;53.356;-1.464;2023-02-22T06:23:25;99836.97;;;8.45;100.00
29839;BME280;18669;53.356;-1.464;2023-02-22T06:25:51;99829.25;;;8.39;100.00
29839;BME280;18669;53.356;-1.464;2023-02-22T06:28:17;99818.22;;;8.62;100.00
29839;BME280;18669;53.356;-1.464;2023-02-22T06:30:43;99828.34;;;8.40;100.00
29839;BME280;18669;53.356;-1.464;2023-02-22T06:33:10;99833.53;;;8.42;100.00
29839;BME280;18669;53.356;-1.464;2023-02-22T06:35:36;99832.84;;;8.33;100.00
29839;BME280;18669;53.356;-1.464;2023-02-22T06:38:02;99833.59;;;8.40;100.00
29839;BME280;18669;53.356;-1.464;2023-02-22T06:40:28;99828.41;;;8.37;100.00
29839;BME280;18669;53.356;-1.464;2023-02-22T06:42:55;99835.03;;;8.54;100.00
29839;BME280;18669;53.356;-1.464;2023-02-22T06:45:21;99837.97;;;8.40;100.00
29839;BME280;18669;53.356;-1.464;2023-02-22T06:47:47;99845.66;;;8.47;100.00
29839;BME280;18669;53.356;-1.464;2023-02-22T06:50:28;99840.91;;;8.63;100.00
29839;BME280;18669;53.356;-1.464;2023-02-22T06:52:55;99848.09;;;8.55;100.00
29839;BME280;18669;53.356;-1.464;2023-02-22T06:55:24;99846.25;;;8.60;100.00
29839;BME280;18669;53.356;-1.464;2023-02-22T06:57:51;99849.94;;;8.51;100.00
29839;BME280;18669;53.356;-1.464;2023-02-22T07:00:18;99841.47;;;8.39;100.00
29839;BME280;18669;53.356;-1.464;2023-02-22T07:02:46;99837.13;;;8.38;100.00
29839;BME280;18669;53.356;-1.464;2023-02-22T07:05:15;99831.13;;;8.34;100.00
29839;BME280;18669;53.356;-1.464;2023-02-22T07:07:42;99831.06;;;8.35;100.00
29839;BME280;18669;53.356;-1.464;2023-02-22T07:10:17;99839.81;;;8.36;100.00
29839;BME280;18669;53.356;-1.464;2023-02-22T07:12:45;99834.56;;;8.36;100.00
29839;BME280;18669;53.356;-1.464;2023-02-22T07:15:11;99824.91;;;8.38;100.00
29839;BME280;18669;53.356;-1.464;2023-02-22T07:17:39;99832.63;;;8.44;100.00
29839;BME280;18669;53.356;-1.464;2023-02-22T07:20:06;99842.13;;;8.48;100.00
29839;BME280;18669;53.356;-1.464;2023-02-22T07:22:32;99840.41;;;8.47;100.00
29839;BME280;18669;53.356;-1.464;2023-02-22T07:24:58;99841.38;;;8.43;100.00
29839;BME280;18669;53.356;-1.464;2023-02-22T07:27:24;99842.00;;;8.55;100.00
29839;BME280;18669;53.356;-1.464;2023-02-22T07:29:50;99845.03;;;8.36;100.00
29839;BME280;18669;53.356;-1.464;2023-02-22T07:32:16;99842.44;;;8.34;100.00
29839;BME280;18669;53.356;-1.464;2023-02-22T07:34:42;99838.28;;;8.26;100.00
29839;BME280;18669;53.356;-1.464;2023-02-22T07:37:08;99837.44;;;8.25;100.00
29839;BME280;18669;53.356;-1.464;2023-02-22T07:39:34;99846.16;;;8.26;100.00
29839;BME280;18669;53.356;-1.464;2023-02-22T07:42:03;99850.38;;;8.31;100.00
29839;BME280;18669;53.356;-1.464;2023-02-22T07:44:29;99855.72;;;8.28;100.00
29839;BME280;18669;53.356;-1.464;2023-02-22T07:46:55;99854.78;;;8.31;100.00
29839;BME280;18669;53.356;-1.464;2023-02-22T07:49:21;99850.78;;;8.14;100.00
29839;BME280;18669;53.356;-1.464;2023-02-22T07:51:47;99853.06;;;8.30;100.00
29839;BME280;18669;53.356;-1.464;2023-02-22T07:54:13;99852.22;;;8.28;100.00
29839;BME280;18669;53.356;-1.464;2023-02-22T07:56:48;99860.47;;;8.48;100.00
29839;BME280;18669;53.356;-1.464;2023-02-22T07:59:14;99863.31;;;8.39;100.00
29839;BME280;18669;53.356;-1.464;2023-02-22T08:01:40;99861.59;;;8.38;100.00
29839;BME280;18669;53.356;-1.464;2023-02-22T08:04:07;99862.38;;;8.42;100.00
29839;BME280;18669;53.356;-1.464;2023-02-22T08:06:33;99864.97;;;8.43;100.00
29839;BME280;18669;53.356;-1.464;2023-02-22T08:08:59;99872.47;;;8.60;100.00
29839;BME280;18669;53.356;-1.464;2023-02-22T08:11:25;99866.38;;;8.58;100.00
29839;BME280;18669;53.356;-1.464;2023-02-22T08:13:51;99869.03;;;8.57;100.00
29839;BME280;18669;53.356;-1.464;2023-02-22T08:16:17;99872.41;;;8.62;100.00
29839;BME280;18669;53.356;-1.464;2023-02-22T08:18:43;99872.41;;;8.62;100.00
29839;BME280;18669;53.356;-1.464;2023-02-22T08:21:09;99872.63;;;8.53;100.00
29839;BME280;18669;53.356;-1.464;2023-02-22T08:23:35;99874.56;;;8.44;100.00
29839;BME280;18669;53.356;-1.464;2023-02-22T08:26:09;99877.69;;;8.60;100.00
29839;BME280;18669;53.356;-1.464;2023-02-22T08:28:35;99878.69;;;8.55;100.00
29839;BME280;18669;53.356;-1.464;2023-02-22T08:31:01;99880.34;;;8.59;100.00
29839;BME280;18669;53.356;-1.464;2023-02-22T08:33:28;99879.34;;;8.64;100.00
29839;BME280;18669;53.356;-1.464;2023-02-22T08:35:54;99880.06;;;8.71;100.00
29839;BME280;18669;53.356;-1.464;2023-02-22T08:38:22;99871.09;;;8.80;100.00
29839;BME280;18669;53.356;-1.464;2023-02-22T08:40:49;99875.41;;;8.83;100.00
29839;BME280;18669;53.356;-1.464;2023-02-22T08:43:16;99871.06;;;8.82;100.00
29839;BME280;18669;53.356;-1.464;2023-02-22T08:45:43;99874.47;;;8.84;100.00
29839;BME280;18669;53.356;-1.464;2023-02-22T08:48:11;99874.53;;;8.82;100.00
29839;BME280;18669;53.356;-1.464;2023-02-22T08:50:37;99881.44;;;8.85;100.00
29839;BME280;18669;53.356;-1.464;2023-02-22T08:53:04;99871.59;;;8.94;100.00
29839;BME280;18669;53.356;-1.464;2023-02-22T08:55:35;99876.59;;;9.04;100.00
29839;BME280;18669;53.356;-1.464;2023-02-22T08:58:02;99872.22;;;9.03;100.00
29839;BME280;18669;53.356;-1.464;2023-02-22T09:00:31;99870.25;;;9.13;100.00
29839;BME280;18669;53.356;-1.464;2023-02-22T09:03:02;99869.28;;;9.17;100.00
29839;BME280;18669;53.356;-1.464;2023-02-22T09:05:29;99869.06;;;9.24;100.00
29839;BME280;18669;53.356;-1.464;2023-02-22T09:07:55;99867.28;;;9.25;100.00
29839;BME280;18669;53.356;-1.464;2023-02-22T09:10:25;99862.59;;;9.36;100.00
29839;BME280;18669;53.356;-1.464;2023-02-22T09:12:52;99866.06;;;9.37;100.00
29839;BME280;18669;53.356;-1.464;2023-02-22T09:15:21;99870.38;;;9.39;100.00
29839;BME280;18669;53.356;-1.464;2023-02-22T09:17:47;99878.94;;;9.46;100.00
29839;BME280;18669;53.356;-1.464;2023-02-22T09:20:16;99890.84;;;9.58;100.00
29839;BME280;18669;53.356;-1.464;2023-02-22T09:22:44;99876.75;;;9.62;100.00
29839;BME280;18669;53.356;-1.464;2023-02-22T09:25:11;99877.63;;;9.63;100.00
29839;BME280;18669;53.356;-1.464;2023-02-22T09:27:37;99891.19;;;9.77;100.00
29839;BME280;18669;53.356;-1.464;2023-02-22T09:30:06;99893.19;;;9.69;100.00
29839;BME280;18669;53.356;-1.464;2023-02-22T09:32:36;99889.69;;;9.68;100.00
29839;BME280;18669;53.356;-1.464;2023-02-22T09:35:02;99891.34;;;9.73;100.00
29839;BME280;18669;53.356;-1.464;2023-02-22T09:37:28;99887.25;;;9.62;100.00
29839;BME280;18669;53.356;-1.464;2023-02-22T09:39:54;99897.81;;;9.61;100.00
29839;BME280;18669;53.356;-1.464;2023-02-22T09:42:33;99900.22;;;9.68;100.00
29839;BME280;18669;53.356;-1.464;2023-02-22T09:45:06;99899.63;;;9.59;100.00
29839;BME280;18669;53.356;-1.464;2023-02-22T09:47:58;99891.09;;;9.50;100.00
29839;BME280;18669;53.356;-1.464;2023-02-22T09:50:30;99899.19;;;9.43;100.00
29839;BME280;18669;53.356;-1.464;2023-02-22T09:53:24;99907.00;;;9.44;100.00
29839;BME280;18669;53.356;-1.464;2023-02-22T09:55:59;99917.81;;;9.33;100.00
29839;BME280;18669;53.356;-1.464;2023-02-22T09:58:34;99920.88;;;9.16;100.00
29839;BME280;18669;53.356;-1.464;2023-02-22T10:01:37;99918.47;;;9.08;100.00
29839;BME280;18669;53.356;-1.464;2023-02-22T10:09:17;99923.25;;;9.25;100.00
29839;BME280;18669;53.356;-1.464;2023-02-22T10:11:57;99930.91;;;9.66;100.00
29839;BME280;18669;53.356;-1.464;2023-02-22T10:25:35;99931.13;;;9.59;100.00
29839;BME280;18669;53.356;-1.464;2023-02-22T10:28:10;99933.59;;;9.65;100.00
29839;BME280;18669;53.356;-1.464;2023-02-22T10:30:43;99930.75;;;9.73;100.00
29839;BME280;18669;53.356;-1.464;2023-02-22T10:33:15;99923.69;;;9.73;100.00
29839;BME280;18669;53.356;-1.464;2023-02-22T10:35:43;99926.63;;;9.64;100.00
29839;BME280;18669;53.356;-1.464;2023-02-22T10:38:11;99928.72;;;9.51;100.00
29839;BME280;18669;53.356;-1.464;2023-02-22T10:40:42;99934.69;;;9.56;100.00
29839;BME280;18669;53.356;-1.464;2023-02-22T10:43:09;99935.81;;;9.47;100.00
29839;BME280;18669;53.356;-1.464;2023-02-22T10:45:36;99933.06;;;9.52;100.00
29839;BME280;18669;53.356;-1.464;2023-02-22T10:48:04;99940.41;;;9.70;100.00
29839;BME280;18669;53.356;-1.464;2023-02-22T10:50:34;99950.09;;;9.68;100.00
29839;BME280;18669;53.356;-1.464;2023-02-22T10:53:01;99947.78;;;9.58;100.00
29839;BME280;18669;53.356;-1.464;2023-02-22T10:55:27;99946.25;;;9.82;100.00
29839;BME280;18669;53.356;-1.464;2023-02-22T10:58:01;99946.16;;;9.85;100.00
29839;BME280;18669;53.356;-1.464;2023-02-22T11:00:30;99950.22;;;9.95;100.00
29839;BME280;18669;53.356;-1.464;2023-02-22T11:02:59;99958.81;;;10.02;100.00
29839;BME280;18669;53.356;-1.464;2023-02-22T11:05:37;99953.63;;;9.99;100.00
29839;BME280;18669;53.356;-1.464;2023-02-22T11:08:13;99954.38;;;10.04;100.00
29839;BME280;18669;53.356;-1.464;2023-02-22T11:10:40;99955.56;;;9.92;100.00
29839;BME280;18669;53.356;-1.464;2023-02-22T11:15:59;99963.44;;;9.92;100.00
29839;BME280;18669;53.356;-1.464;2023-02-22T11:18:33;99965.16;;;9.95;100.00
29839;BME280;18669;53.356;-1.464;2023-02-22T11:21:10;99967.28;;;10.12;100.00
29839;BME280;18669;53.356;-1.464;2023-02-22T11:23:40;99971.94;;;10.32;100.00
29839;BME280;18669;53.356;-1.464;2023-02-22T11:26:10;99972.69;;;10.36;100.00
29839;BME280;18669;53.356;-1.464;2023-02-22T11:28:45;99964.47;;;10.48;100.00
29839;BME280;18669;53.356;-1.464;2023-02-22T11:31:26;99968.75;;;10.21;100.00
29839;BME280;18669;53.356;-1.464;2023-02-22T11:33:59;99979.44;;;10.16;100.00
29839;BME280;18669;53.356;-1.464;2023-02-22T11:36:40;99977.00;;;10.08;100.00
29839;BME280;18669;53.356;-1.464;2023-02-22T11:41:50;99985.38;;;9.91;100.00
29839;BME280;18669;53.356;-1.464;2023-02-22T11:44:36;99991.41;;;9.95;100.00
29839;BME280;18669;53.356;-1.464;2023-02-22T11:47:10;99991.63;;;9.87;100.00
29839;BME280;18669;53.356;-1.464;2023-02-22T11:49:38;99991.88;;;9.78;100.00
29839;BME280;18669;53.356;-1.464;2023-02-22T11:52:37;99998.03;;;9.77;100.00
29839;BME280;18669;53.356;-1.464;2023-02-22T11:55:29;99997.16;;;9.78;100.00
29839;BME280;18669;53.356;-1.464;2023-02-22T12:00:58;100000.78;;;9.72;100.00
29839;BME280;18669;53.356;-1.464;2023-02-22T12:12:49;100001.22;;;10.20;100.00
29839;BME280;18669;53.356;-1.464;2023-02-22T12:20:49;100004.84;;;10.15;100.00
29839;BME280;18669;53.356;-1.464;2023-02-22T12:26:08;100008.09;;;9.94;100.00
29839;BME280;18669;53.356;-1.464;2023-02-22T12:28:39;100004.50;;;9.96;100.00
29839;BME280;18669;53.356;-1.464;2023-02-22T12:36:46;100001.44;;;10.12;100.00
29839;BME280;18669;53.356;-1.464;2023-02-22T12:42:19;100010.63;;;9.97;100.00
29839;BME280;18669;53.356;-1.464;2023-02-22T12:44:53;100010.88;;;9.88;100.00
29839;BME280;18669;53.356;-1.464;2023-02-22T12:47:28;100022.03;;;9.96;100.00
29839;BME280;18669;53.356;-1.464;2023-02-22T12:50:04;100022.94;;;9.95;100.00
29839;BME280;18669;53.356;-1.464;2023-02-22T12:55:22;100023.19;;;9.85;100.00
29839;BME280;18669;53.356;-1.464;2023-02-22T12:58:07;100013.59;;;9.84;97.36
29839;BME280;18669;53.356;-1.464;2023-02-22T13:00:55;100024.69;;;9.94;94.29
29839;BME280;18669;53.356;-1.464;2023-02-22T13:03:41;100031.84;;;9.89;98.04
29839;BME280;18669;53.356;-1.464;2023-02-22T13:20:26;100037.69;;;10.00;94.72
29839;BME280;18669;53.356;-1.464;2023-02-22T13:23:00;100042.28;;;9.92;97.27
29839;BME280;18669;53.356;-1.464;2023-02-22T13:28:23;100044.06;;;9.92;97.28
29839;BME280;18669;53.356;-1.464;2023-02-22T13:31:17;100038.81;;;9.92;98.98
29839;BME280;18669;53.356;-1.464;2023-02-22T13:36:38;100042.34;;;9.89;94.32
29839;BME280;18669;53.356;-1.464;2023-02-22T13:39:25;100046.38;;;9.71;98.21
29839;BME280;18669;53.356;-1.464;2023-02-22T13:47:30;100057.81;;;9.68;92.33
29839;BME280;18669;53.356;-1.464;2023-02-22T13:53:04;100051.56;;;9.73;96.24
29839;BME280;18669;53.356;-1.464;2023-02-22T13:55:35;100052.38;;;9.75;96.56
29839;BME280;18669;53.356;-1.464;2023-02-22T13:58:06;100051.56;;;9.73;96.00
29839;BME280;18669;53.356;-1.464;2023-02-22T14:10:54;100064.56;;;9.77;95.63
29839;BME280;18669;53.356;-1.464;2023-02-22T14:13:23;100064.84;;;9.66;93.86
29839;BME280;18669;53.356;-1.464;2023-02-22T14:16:15;100061.25;;;9.70;90.50
29839;BME280;18669;53.356;-1.464;2023-02-22T14:18:46;100055.75;;;9.80;91.03
29839;BME280;18669;53.356;-1.464;2023-02-22T14:21:21;100068.00;;;9.81;89.79
29839;BME280;18669;53.356;-1.464;2023-02-22T14:23:49;100060.13;;;9.79;92.72
29839;BME280;18669;53.356;-1.464;2023-02-22T14:26:34;100060.66;;;9.92;92.86
29839;BME280;18669;53.356;-1.464;2023-02-22T14:34:20;100062.94;;;10.06;90.48
29839;BME280;18669;53.356;-1.464;2023-02-22T14:37:10;100071.50;;;10.13;92.57
29839;BME280;18669;53.356;-1.464;2023-02-22T14:42:28;100072.34;;;10.15;89.50
29839;BME280;18669;53.356;-1.464;2023-02-22T14:45:04;100084.66;;;10.13;91.06
29839;BME280;18669;53.356;-1.464;2023-02-22T14:51:01;100082.56;;;9.93;91.41
29839;BME280;18669;53.356;-1.464;2023-02-22T14:53:37;100078.22;;;9.90;96.04
29839;BME280;18669;53.356;-1.464;2023-02-22T14:56:08;100076.50;;;9.89;96.82
29839;BME280;18669;53.356;-1.464;2023-02-22T14:58:43;100088.75;;;9.90;97.35
29839;BME280;18669;53.356;-1.464;2023-02-22T15:01:24;100083.34;;;9.96;97.84
29839;BME280;18669;53.356;-1.464;2023-02-22T15:03:51;100091.56;;;9.84;99.50
29839;BME280;18669;53.356;-1.464;2023-02-22T15:06:26;100088.63;;;9.95;100.00
29839;BME280;18669;53.356;-1.464;2023-02-22T15:09:12;100082.41;;;9.99;100.00
29839;BME280;18669;53.356;-1.464;2023-02-22T15:14:29;100097.28;;;9.98;100.00
29839;BME280;18669;53.356;-1.464;2023-02-22T15:17:04;100094.22;;;10.15;99.39
29839;BME280;18669;53.356;-1.464;2023-02-22T15:19:37;100095.19;;;10.11;100.00
29839;BME280;18669;53.356;-1.464;2023-02-22T15:22:04;100105.00;;;10.05;100.00
29839;BME280;18669;53.356;-1.464;2023-02-22T15:24:35;100103.13;;;10.10;100.00
29839;BME280;18669;53.356;-1.464;2023-02-22T15:27:14;100104.34;;;9.96;100.00
29839;BME280;18669;53.356;-1.464;2023-02-22T15:29:44;100106.69;;;9.74;100.00